createdAt,value
2019-05-18T00:01:29.281Z,16.30
2019-05-18T00:03:58.817Z,15.72
2019-05-18T00:06:28.354Z,16.82
2019-05-18T00:08:57.889Z,16.95
2019-05-18T00:11:27.451Z,16.95
2019-05-18T00:13:56.987Z,16.45
2019-05-18T00:16:26.542Z,16.55
2019-05-18T00:18:56.097Z,15.83
2019-05-18T00:21:26.301Z,15.85
2019-05-18T00:23:55.856Z,15.48
2019-05-18T00:26:25.877Z,16.50
2019-05-18T00:28:55.406Z,16.52
2019-05-18T00:31:24.961Z,15.38
2019-05-18T00:33:54.499Z,16.97
2019-05-18T00:36:24.038Z,16.25
2019-05-18T00:38:53.585Z,16.10
2019-05-18T00:41:23.136Z,17.20
2019-05-18T00:43:52.652Z,17.48
2019-05-18T00:46:22.219Z,16.00
2019-05-18T00:48:51.797Z,16.90
2019-05-18T00:51:23.324Z,16.95
2019-05-18T00:53:52.560Z,16.37
2019-05-18T00:56:22.099Z,16.12
2019-05-18T00:58:51.628Z,17.52
2019-05-18T01:01:21.457Z,16.10
2019-05-18T01:03:50.992Z,17.85
2019-05-18T01:06:20.516Z,16.82
2019-05-18T01:08:50.050Z,15.25
2019-05-18T01:11:19.589Z,16.48
2019-05-18T01:13:49.141Z,17.00
2019-05-18T01:16:18.697Z,16.48
2019-05-18T01:18:48.225Z,15.48
2019-05-18T01:21:17.803Z,16.25
2019-05-18T01:23:47.339Z,17.30
2019-05-18T01:26:16.888Z,15.60
2019-05-18T01:28:46.457Z,17.95
2019-05-18T01:31:15.988Z,17.95
2019-05-18T01:33:46.285Z,16.70
2019-05-18T01:36:15.835Z,16.05
2019-05-18T01:38:46.642Z,15.45
2019-05-18T01:41:16.173Z,16.65
2019-05-18T01:43:46.937Z,15.98
2019-05-18T01:46:16.464Z,16.75
2019-05-18T01:48:46.477Z,17.00
2019-05-18T01:51:17.262Z,17.30
2019-05-18T01:53:46.853Z,18.48
2019-05-18T01:56:16.390Z,16.67
2019-05-18T01:58:45.942Z,16.80
2019-05-18T02:01:15.474Z,17.32
2019-05-18T02:03:45.010Z,16.50
2019-05-18T02:06:14.578Z,15.50
2019-05-18T02:08:44.130Z,18.67
2019-05-18T02:11:13.660Z,17.55
2019-05-18T02:13:43.222Z,17.10
2019-05-18T02:16:12.749Z,16.90
2019-05-18T02:18:42.281Z,16.85
2019-05-18T02:21:11.822Z,16.35
2019-05-18T02:23:41.356Z,16.27
2019-05-18T02:26:10.887Z,17.02
2019-05-18T02:28:40.426Z,16.37
2019-05-18T02:31:09.954Z,16.20
2019-05-18T02:33:39.563Z,17.37
2019-05-18T02:36:09.095Z,16.67
2019-05-18T02:38:38.624Z,18.67
2019-05-18T02:41:08.171Z,16.25
2019-05-18T02:43:37.707Z,16.52
2019-05-18T02:46:07.314Z,17.23
2019-05-18T02:48:48.733Z,18.32
2019-05-18T02:51:11.411Z,17.23
2019-05-18T02:53:39.582Z,16.93
2019-05-18T02:56:09.144Z,16.73
2019-05-18T02:58:38.697Z,16.48
2019-05-18T03:01:08.229Z,17.62
2019-05-18T03:03:37.792Z,17.80
2019-05-18T03:06:07.326Z,16.97
2019-05-18T03:08:36.897Z,16.25
2019-05-18T03:11:06.423Z,17.27
2019-05-18T03:13:35.972Z,17.35
2019-05-18T03:16:05.507Z,17.17
2019-05-18T03:18:35.065Z,16.27
2019-05-18T03:21:04.609Z,19.10
2019-05-18T03:23:34.133Z,18.30
2019-05-18T03:26:03.698Z,17.15
2019-05-18T03:28:34.886Z,17.82
2019-05-18T03:31:04.429Z,17.48
2019-05-18T03:33:34.047Z,17.87
2019-05-18T03:36:03.598Z,17.98
2019-05-18T03:38:33.221Z,17.92
2019-05-18T03:41:03.017Z,18.80
2019-05-18T03:43:32.927Z,17.85
2019-05-18T03:46:02.522Z,17.80
2019-05-18T03:48:33.352Z,17.92
2019-05-18T03:51:02.878Z,16.85
2019-05-18T03:53:32.782Z,18.35
2019-05-18T03:56:02.322Z,19.37
2019-05-18T03:58:31.854Z,17.98
2019-05-18T04:01:04.402Z,18.55
2019-05-18T04:03:33.953Z,18.17
2019-05-18T04:06:03.583Z,17.62
2019-05-18T04:08:33.230Z,17.82
2019-05-18T04:11:02.843Z,16.60
2019-05-18T04:13:32.853Z,19.10
2019-05-18T04:16:02.409Z,19.00
2019-05-18T04:18:31.946Z,18.57
2019-05-18T04:21:04.775Z,18.67
2019-05-18T04:23:34.306Z,19.23
2019-05-18T04:26:03.830Z,19.30
2019-05-18T04:28:36.286Z,19.70
2019-05-18T04:31:05.837Z,19.12
2019-05-18T04:33:35.757Z,20.15
2019-05-18T04:36:05.598Z,18.92
2019-05-18T04:38:35.137Z,18.77
2019-05-18T04:41:04.680Z,17.27
2019-05-18T04:43:34.301Z,20.00
2019-05-18T04:46:03.835Z,21.60
2019-05-18T04:48:33.396Z,23.22
2019-05-18T04:51:02.950Z,17.15
2019-05-18T04:53:32.502Z,20.70
2019-05-18T04:56:02.034Z,22.95
2019-05-18T04:58:31.627Z,21.50
2019-05-18T05:01:01.214Z,23.98
2019-05-18T05:03:30.772Z,25.88
2019-05-18T05:06:00.447Z,23.05
2019-05-18T05:08:29.967Z,22.85
2019-05-18T05:11:00.198Z,23.47
2019-05-18T05:13:29.732Z,20.02
2019-05-18T05:15:59.758Z,23.62
2019-05-18T05:18:29.280Z,21.70
2019-05-18T05:20:58.847Z,25.57
2019-05-18T05:23:28.569Z,23.85
2019-05-18T05:25:58.109Z,24.47
2019-05-18T05:28:27.667Z,23.18
2019-05-18T05:30:57.189Z,23.60
2019-05-18T05:33:26.745Z,26.17
2019-05-18T05:35:56.268Z,25.85
2019-05-18T05:38:25.836Z,23.25
2019-05-18T05:40:55.365Z,24.35
2019-05-18T05:43:24.905Z,24.77
2019-05-18T05:45:54.467Z,24.90
2019-05-18T05:48:24.050Z,23.25
2019-05-18T05:50:53.661Z,22.55
2019-05-18T05:53:23.192Z,24.05
2019-05-18T05:55:52.724Z,26.23
2019-05-18T05:58:22.279Z,25.10
2019-05-18T06:00:51.806Z,23.85
2019-05-18T06:03:21.635Z,24.70
2019-05-18T06:05:51.165Z,23.02
2019-05-18T06:08:20.697Z,23.85
2019-05-18T06:10:50.254Z,21.33
2019-05-18T06:13:19.781Z,23.25
2019-05-18T06:15:49.333Z,23.05
2019-05-18T06:18:18.861Z,24.10
2019-05-18T06:20:51.650Z,21.80
2019-05-18T06:23:20.706Z,21.52
2019-05-18T06:25:50.247Z,20.82
2019-05-18T06:28:20.838Z,20.88
2019-05-18T06:30:50.372Z,21.25
2019-05-18T06:33:19.994Z,21.35
2019-05-18T06:35:49.571Z,20.82
2019-05-18T06:38:19.799Z,21.37
2019-05-18T06:40:49.343Z,20.20
2019-05-18T06:43:18.858Z,19.02
2019-05-18T06:45:48.960Z,18.73
2019-05-18T06:48:18.567Z,18.92
2019-05-18T06:50:48.096Z,19.05
2019-05-18T06:53:17.631Z,19.37
2019-05-18T06:55:47.166Z,17.73
2019-05-18T06:58:16.701Z,17.48
2019-05-18T07:00:46.274Z,17.30
2019-05-18T07:03:15.847Z,17.17
2019-05-18T07:05:45.377Z,19.12
2019-05-18T07:08:14.914Z,18.73
2019-05-18T07:10:44.449Z,19.27
2019-05-18T07:13:14.002Z,20.27
2019-05-18T07:15:44.278Z,18.65
2019-05-18T07:18:13.847Z,18.80
2019-05-18T07:20:43.385Z,19.25
2019-05-18T07:23:12.930Z,19.50
2019-05-18T07:25:42.499Z,20.10
2019-05-18T07:28:12.154Z,19.25
2019-05-18T07:30:41.709Z,20.77
2019-05-18T07:33:11.331Z,16.82
2019-05-18T07:35:40.897Z,19.05
2019-05-18T07:38:10.472Z,19.40
2019-05-18T07:40:40.011Z,18.62
2019-05-18T07:43:09.535Z,18.67
2019-05-18T07:45:40.649Z,19.20
2019-05-18T07:48:10.204Z,17.45
2019-05-18T07:50:39.905Z,16.67
2019-05-18T07:53:09.456Z,17.35
2019-05-18T07:55:39.761Z,17.98
2019-05-18T07:58:09.307Z,18.45
2019-05-18T08:00:38.854Z,15.08
2019-05-18T08:03:08.399Z,17.95
2019-05-18T08:05:37.976Z,16.20
2019-05-18T08:08:07.501Z,15.58
2019-05-18T08:10:37.897Z,17.62
2019-05-18T08:13:07.474Z,17.55
2019-05-18T08:15:37.009Z,16.15
2019-05-18T08:18:06.629Z,14.58
2019-05-18T08:20:36.189Z,15.48
2019-05-18T08:23:05.829Z,14.75
2019-05-18T08:25:35.355Z,13.25
2019-05-18T08:28:04.914Z,12.05
2019-05-18T08:30:34.450Z,13.22
2019-05-18T08:33:04.057Z,12.63
2019-05-18T08:35:33.594Z,14.73
2019-05-18T08:38:03.410Z,14.58
2019-05-18T08:40:33.011Z,13.98
2019-05-18T08:43:02.565Z,13.30
2019-05-18T08:45:32.115Z,13.43
2019-05-18T08:48:01.641Z,12.73
2019-05-18T08:50:31.188Z,11.83
2019-05-18T08:53:00.716Z,10.78
2019-05-18T08:55:30.281Z,10.75
2019-05-18T08:57:59.828Z,10.93
2019-05-18T09:00:29.363Z,11.85
2019-05-18T09:02:58.921Z,11.25
2019-05-18T09:05:28.461Z,11.15
2019-05-18T09:07:58.010Z,9.80
2019-05-18T09:10:27.534Z,8.23
2019-05-18T09:12:57.085Z,9.63
2019-05-18T09:15:26.625Z,11.53
2019-05-18T09:17:56.166Z,9.75
2019-05-18T09:20:25.701Z,8.50
2019-05-18T09:22:55.233Z,7.90
2019-05-18T09:25:24.881Z,6.17
2019-05-18T09:27:54.748Z,5.75
2019-05-18T09:30:24.810Z,7.55
2019-05-18T09:32:54.378Z,6.42
2019-05-18T09:35:23.896Z,6.62
2019-05-18T09:37:53.440Z,6.40
2019-05-18T09:40:22.961Z,5.40
2019-05-18T09:42:52.481Z,4.85
2019-05-18T09:45:22.011Z,4.90
2019-05-18T09:47:51.534Z,4.87
2019-05-18T09:50:21.085Z,4.70
2019-05-18T09:52:50.670Z,4.70
2019-05-18T09:55:20.190Z,4.67
2019-05-18T09:57:49.747Z,4.00
2019-05-18T10:00:19.832Z,4.85
2019-05-18T10:02:49.384Z,4.45
2019-05-18T10:05:18.973Z,4.15
2019-05-18T10:07:48.561Z,4.42
2019-05-18T10:10:18.162Z,5.17
2019-05-18T10:12:47.680Z,5.72
2019-05-18T10:15:17.218Z,4.80
2019-05-18T10:17:46.733Z,4.90
2019-05-18T10:20:16.261Z,4.40
2019-05-18T10:22:59.172Z,3.90
2019-05-18T10:25:17.025Z,3.77
2019-05-18T10:27:46.576Z,4.85
2019-05-18T10:30:16.099Z,4.05
2019-05-18T10:32:45.635Z,4.05
2019-05-18T10:35:15.827Z,3.92
2019-05-18T10:37:45.824Z,3.60
2019-05-18T10:40:15.523Z,4.85
2019-05-18T10:42:45.040Z,3.95
2019-05-18T10:45:15.398Z,4.37
2019-05-18T10:47:44.950Z,5.00
2019-05-18T10:50:14.940Z,5.50
2019-05-18T10:52:44.465Z,4.53
2019-05-18T10:55:13.990Z,4.20
2019-05-18T10:57:43.519Z,3.90
2019-05-18T11:00:13.114Z,4.20
2019-05-18T11:02:42.645Z,4.47
2019-05-18T11:05:13.250Z,4.87
2019-05-18T11:07:42.765Z,4.30
2019-05-18T11:10:12.284Z,3.87
2019-05-18T11:12:41.877Z,3.75
2019-05-18T11:15:11.403Z,4.40
2019-05-18T11:17:41.004Z,3.92
2019-05-18T11:20:10.750Z,3.80
2019-05-18T11:22:40.278Z,4.12
2019-05-18T11:25:09.794Z,4.10
2019-05-18T11:27:39.873Z,3.52
2019-05-18T11:30:10.065Z,3.31
2019-05-18T11:32:41.128Z,3.95
2019-05-18T11:35:10.663Z,4.25
2019-05-18T11:37:40.228Z,4.17
2019-05-18T11:40:10.186Z,4.53
2019-05-18T11:42:39.809Z,4.72
2019-05-18T11:45:10.535Z,4.55
2019-05-18T11:47:40.673Z,4.33
2019-05-18T11:50:10.286Z,3.55
2019-05-18T11:52:40.174Z,2.37
2019-05-18T11:55:09.716Z,2.12
2019-05-18T11:57:40.115Z,2.00
2019-05-18T12:00:11.970Z,2.67
2019-05-18T12:02:41.508Z,2.40
2019-05-18T12:05:11.777Z,2.20
2019-05-18T12:07:41.321Z,1.90
2019-05-18T12:10:10.913Z,2.77
2019-05-18T12:12:40.436Z,2.30
2019-05-18T12:15:10.206Z,2.90
2019-05-18T12:17:40.814Z,2.60
2019-05-18T12:20:10.341Z,2.33
2019-05-18T12:22:39.949Z,2.70
2019-05-18T12:25:09.486Z,2.65
2019-05-18T12:27:39.089Z,2.52
2019-05-18T12:30:09.030Z,2.05
2019-05-18T12:32:38.639Z,2.65
2019-05-18T12:35:11.371Z,2.17
2019-05-18T12:37:40.924Z,3.58
2019-05-18T12:40:10.507Z,2.58
2019-05-18T12:42:40.054Z,2.37
2019-05-18T12:45:09.602Z,2.10
2019-05-18T12:47:39.985Z,2.22
2019-05-18T12:50:09.529Z,1.82
2019-05-18T12:52:39.826Z,1.90
2019-05-18T12:55:09.424Z,2.60
2019-05-18T12:57:39.025Z,2.65
2019-05-18T13:00:09.778Z,2.42
2019-05-18T13:02:41.074Z,2.90
2019-05-18T13:05:11.357Z,3.20
2019-05-18T13:07:40.921Z,3.70
2019-05-18T13:10:10.981Z,2.98
2019-05-18T13:12:40.536Z,2.50
2019-05-18T13:15:10.598Z,3.08
2019-05-18T13:17:40.525Z,3.08
2019-05-18T13:20:11.181Z,3.37
2019-05-18T13:22:41.058Z,3.12
2019-05-18T13:25:10.573Z,2.98
2019-05-18T13:27:40.369Z,3.10
2019-05-18T13:30:11.530Z,3.05
2019-05-18T13:32:41.174Z,2.75
2019-05-18T13:35:10.841Z,3.10
2019-05-18T13:37:40.384Z,2.77
2019-05-18T13:40:10.018Z,2.40
2019-05-18T13:42:40.860Z,2.35
2019-05-18T13:45:10.422Z,2.72
2019-05-18T13:47:40.293Z,2.70
2019-05-18T13:50:10.890Z,2.33
2019-05-18T13:52:40.435Z,2.62
2019-05-18T13:55:09.968Z,2.17
2019-05-18T13:57:39.845Z,2.55
2019-05-18T14:00:09.545Z,2.50
2019-05-18T14:02:39.835Z,2.20
2019-05-18T14:05:09.386Z,2.30
2019-05-18T14:07:38.926Z,2.80
2019-05-18T14:10:08.461Z,2.20
2019-05-18T14:12:37.987Z,2.10
2019-05-18T14:15:10.566Z,3.02
2019-05-18T14:17:40.447Z,2.85
2019-05-18T14:20:10.021Z,1.85
2019-05-18T14:22:39.772Z,1.95
2019-05-18T14:25:18.779Z,2.00
2019-05-18T14:27:41.407Z,2.20
2019-05-18T14:30:10.954Z,2.10
2019-05-18T14:32:40.542Z,3.02
2019-05-18T14:35:10.063Z,2.33
2019-05-18T14:37:39.873Z,2.33
2019-05-18T14:40:09.414Z,2.20
2019-05-18T14:42:38.947Z,2.35
2019-05-18T14:45:08.476Z,2.20
2019-05-18T14:47:38.003Z,2.27
2019-05-18T14:50:07.552Z,2.83
2019-05-18T14:52:37.071Z,2.65
2019-05-18T14:55:06.697Z,2.10
2019-05-18T14:57:36.226Z,2.08
2019-05-18T15:00:07.441Z,2.42
2019-05-18T15:02:36.962Z,2.62
2019-05-18T15:05:08.145Z,2.12
2019-05-18T15:07:37.682Z,2.42
2019-05-18T15:10:07.674Z,2.10
2019-05-18T15:12:37.283Z,2.30
2019-05-18T15:15:07.459Z,2.60
2019-05-18T15:17:37.028Z,2.80
2019-05-18T15:20:08.381Z,2.17
2019-05-18T15:22:37.917Z,2.50
2019-05-18T15:25:07.523Z,2.15
2019-05-18T15:27:37.037Z,2.08
2019-05-18T15:30:06.630Z,2.00
2019-05-18T15:32:36.147Z,2.60
2019-05-18T15:35:07.204Z,2.47
2019-05-18T15:37:37.305Z,2.52
2019-05-18T15:40:06.899Z,2.67
2019-05-18T15:42:36.463Z,2.58
2019-05-18T15:45:06.587Z,2.02
2019-05-18T15:47:36.101Z,2.25
2019-05-18T15:50:07.240Z,1.70
2019-05-18T15:52:36.765Z,2.10
2019-05-18T15:55:07.345Z,2.17
2019-05-18T15:57:37.131Z,2.90
2019-05-18T16:00:07.519Z,2.35
2019-05-18T16:02:37.041Z,2.92
2019-05-18T16:05:07.208Z,2.15
2019-05-18T16:07:36.734Z,2.62
2019-05-18T16:10:06.496Z,2.50
2019-05-18T16:12:36.021Z,2.50
2019-05-18T16:15:08.353Z,2.30
2019-05-18T16:17:40.131Z,2.42
2019-05-18T16:22:39.676Z,2.20
2019-05-18T16:25:09.197Z,2.33
2019-05-18T16:27:38.730Z,2.12
2019-05-18T16:30:08.329Z,2.05
2019-05-18T16:32:37.873Z,2.10
2019-05-18T16:35:07.928Z,2.02
2019-05-18T16:37:38.233Z,2.40
2019-05-18T16:40:07.779Z,2.00
2019-05-18T16:42:37.382Z,2.42
2019-05-18T16:45:08.856Z,2.50
2019-05-18T16:47:38.439Z,1.90
2019-05-18T16:50:07.976Z,2.30
2019-05-18T16:52:37.512Z,2.52
2019-05-18T16:55:07.505Z,2.00
2019-05-18T16:57:37.091Z,2.20
2019-05-18T17:00:15.761Z,2.10
2019-05-18T17:02:43.482Z,2.45
2019-05-18T17:05:13.206Z,2.20
2019-05-18T17:07:42.790Z,2.12
2019-05-18T17:10:12.368Z,2.10
2019-05-18T17:12:41.928Z,2.20
2019-05-18T17:15:11.600Z,2.33
2019-05-18T17:17:41.125Z,2.00
2019-05-18T17:20:10.753Z,2.35
2019-05-18T17:22:40.271Z,1.80
2019-05-18T17:25:09.820Z,2.60
2019-05-18T17:27:39.364Z,1.98
2019-05-18T17:30:08.912Z,1.90
2019-05-18T17:32:38.429Z,2.45
2019-05-18T17:35:08.521Z,2.00
2019-05-18T17:37:38.033Z,2.27
2019-05-18T17:40:07.634Z,2.12
2019-05-18T17:42:37.153Z,1.95
2019-05-18T17:45:07.350Z,2.10
2019-05-18T17:47:36.887Z,2.10
2019-05-18T17:50:07.960Z,1.90
2019-05-18T17:52:37.478Z,1.90
2019-05-18T17:55:07.096Z,1.87
2019-05-18T17:57:36.766Z,2.00
2019-05-18T18:00:08.140Z,1.87
2019-05-18T18:02:39.010Z,2.20
2019-05-18T18:05:09.781Z,1.90
2019-05-18T18:07:40.532Z,1.80
2019-05-18T18:10:10.129Z,1.85
2019-05-18T18:12:40.889Z,2.22
2019-05-18T18:15:10.426Z,1.92
2019-05-18T18:17:41.202Z,2.08
2019-05-18T18:20:10.716Z,2.15
2019-05-18T18:22:40.256Z,2.37
2019-05-18T18:25:09.785Z,2.30
2019-05-18T18:27:39.596Z,2.77
2019-05-18T18:30:09.112Z,2.30
2019-05-18T18:32:40.764Z,2.20
2019-05-18T18:35:10.289Z,2.10
2019-05-18T18:37:39.829Z,2.05
2019-05-18T18:40:09.419Z,2.00
2019-05-18T18:42:38.946Z,2.37
2019-05-18T18:45:09.065Z,1.90
2019-05-18T18:50:09.607Z,2.47
2019-05-18T18:52:40.408Z,3.10
2019-05-18T18:55:10.198Z,4.55
2019-05-18T18:57:41.896Z,2.90
2019-05-18T19:00:11.191Z,3.30
2019-05-18T19:02:41.949Z,2.72
2019-05-18T19:05:11.480Z,3.17
2019-05-18T19:07:41.017Z,3.77
2019-05-18T19:10:10.551Z,3.45
2019-05-18T19:12:40.090Z,3.52
2019-05-18T19:15:09.601Z,3.95
2019-05-18T19:17:39.596Z,3.50
2019-05-18T19:20:09.197Z,4.35
2019-05-18T19:22:38.724Z,13.53
2019-05-18T19:25:08.300Z,9.35
2019-05-18T19:27:37.835Z,6.67
2019-05-18T19:30:09.963Z,8.90
2019-05-18T19:32:39.145Z,9.18
2019-05-18T19:35:08.684Z,5.70
2019-05-18T19:37:38.212Z,4.22
2019-05-18T19:40:08.346Z,5.47
2019-05-18T19:42:37.867Z,4.55
2019-05-18T19:45:07.574Z,5.33
2019-05-18T19:47:37.191Z,5.17
2019-05-18T19:50:06.713Z,4.87
2019-05-18T19:52:36.242Z,4.05
2019-05-18T19:55:06.541Z,5.00
2019-05-18T19:57:36.069Z,4.62
2019-05-18T20:00:06.640Z,4.97
2019-05-18T20:02:36.167Z,4.37
2019-05-18T20:05:08.699Z,4.58
2019-05-18T20:07:38.163Z,4.97
2019-05-18T20:10:08.300Z,6.08
2019-05-18T20:12:37.862Z,5.72
2019-05-18T20:15:09.479Z,5.10
2019-05-18T20:17:38.628Z,6.17
2019-05-18T20:20:08.532Z,5.72
2019-05-18T20:22:38.031Z,5.90
2019-05-18T20:25:09.963Z,5.42
2019-05-18T20:30:08.588Z,6.30
2019-05-18T20:32:38.204Z,6.22
2019-05-18T20:35:07.999Z,7.35
2019-05-18T20:37:37.502Z,6.70
2019-05-18T20:40:07.095Z,6.90
2019-05-18T20:42:37.675Z,7.25
2019-05-18T20:45:07.499Z,6.42
2019-05-18T20:47:37.103Z,6.00
2019-05-18T20:50:06.740Z,6.10
2019-05-18T20:52:36.253Z,7.25
2019-05-18T20:55:05.937Z,6.22
2019-05-18T20:57:35.483Z,6.10
2019-05-18T21:00:05.706Z,6.20
2019-05-18T21:02:35.224Z,7.03
2019-05-18T21:05:07.757Z,6.42
2019-05-18T21:07:37.264Z,6.78
2019-05-18T21:10:07.153Z,6.47
2019-05-18T21:12:36.670Z,6.72
2019-05-18T21:15:09.325Z,6.67
2019-05-18T21:17:38.887Z,5.92
2019-05-18T21:20:08.411Z,6.80
2019-05-18T21:22:37.921Z,6.75
2019-05-18T21:25:07.434Z,6.90
2019-05-18T21:27:36.960Z,6.92
2019-05-18T21:30:06.662Z,7.15
2019-05-18T21:32:36.197Z,7.28
2019-05-18T21:35:06.675Z,7.67
2019-05-18T21:37:36.230Z,8.58
2019-05-18T21:40:06.308Z,9.80
2019-05-18T21:42:35.854Z,9.73
2019-05-18T21:45:06.137Z,7.87
2019-05-18T21:47:35.728Z,8.75
2019-05-18T21:50:09.557Z,7.90
2019-05-18T21:52:41.844Z,8.00
2019-05-18T21:55:10.692Z,8.35
2019-05-18T21:57:40.832Z,8.50
2019-05-18T22:00:11.175Z,8.33
2019-05-18T22:02:40.682Z,8.45
2019-05-18T22:05:10.213Z,8.35
2019-05-18T22:07:39.725Z,8.13
2019-05-18T22:10:24.502Z,8.23
2019-05-18T22:12:40.446Z,8.13
2019-05-18T22:15:10.001Z,8.33
2019-05-18T22:17:57.634Z,8.65
2019-05-18T22:20:27.171Z,8.60
2019-05-18T22:22:56.687Z,9.73
2019-05-18T22:25:26.211Z,9.45
2019-05-18T22:27:55.726Z,9.33
2019-05-18T22:30:25.266Z,8.25
2019-05-18T22:32:54.777Z,9.38
2019-05-18T22:35:24.305Z,8.90
2019-05-18T22:37:53.862Z,8.48
2019-05-18T22:40:23.382Z,8.53
2019-05-18T22:42:52.922Z,8.63
2019-05-18T22:45:23.022Z,8.63
2019-05-18T22:47:52.538Z,8.18
2019-05-18T22:50:22.739Z,8.35
2019-05-18T22:52:52.281Z,8.35
2019-05-18T22:55:23.076Z,8.40
2019-05-18T22:57:52.607Z,8.48
2019-05-18T23:00:23.259Z,9.10
2019-05-18T23:02:52.801Z,8.15
2019-05-18T23:05:22.888Z,8.33
2019-05-18T23:07:52.395Z,8.35
2019-05-18T23:10:23.097Z,8.70
2019-05-18T23:12:52.623Z,8.55
2019-05-18T23:15:22.695Z,8.75
2019-05-18T23:17:52.221Z,8.15
2019-05-18T23:20:22.703Z,9.05
2019-05-18T23:22:52.237Z,8.48
2019-05-18T23:25:22.844Z,9.08
2019-05-18T23:27:52.386Z,8.70
2019-05-18T23:30:22.989Z,7.65
2019-05-18T23:32:52.531Z,7.72
2019-05-18T23:35:22.615Z,8.80
2019-05-18T23:37:52.140Z,8.88
2019-05-18T23:40:22.850Z,8.70
2019-05-18T23:42:52.363Z,8.55
2019-05-18T23:45:22.790Z,8.85
2019-05-18T23:47:52.580Z,9.00
2019-05-18T23:50:23.894Z,8.53
2019-05-18T23:52:53.415Z,8.65
2019-05-18T23:55:23.110Z,8.73
2019-05-18T23:57:52.656Z,8.68
